sensor_id;sensor_type;location;lat;lon;timestamp;pressure;altitude;pressure_sealevel;temperature;humidity
61488;BME280;47351;53.326;-6.298;2023-12-07T00:00:20;99919.35;;;8.10;100.00
61488;BME280;47351;53.326;-6.298;2023-12-07T00:03:11;99911.71;;;8.12;100.00
61488;BME280;47351;53.326;-6.298;2023-12-07T00:06:01;99918.69;;;8.13;100.00
61488;BME280;47351;53.326;-6.298;2023-12-07T00:08:54;99923.06;;;8.14;100.00
61488;BME280;47351;53.326;-6.298;2023-12-07T00:11:45;99912.45;;;8.15;100.00
61488;BME280;47351;53.326;-6.298;2023-12-07T00:14:36;99907.92;;;8.16;100.00
61488;BME280;47351;53.326;-6.298;2023-12-07T00:17:27;99913.90;;;8.17;100.00
61488;BME280;47351;53.326;-6.298;2023-12-07T00:20:19;99913.48;;;8.17;100.00
61488;BME280;47351;53.326;-6.298;2023-12-07T00:23:10;99914.10;;;8.18;100.00
61488;BME280;47351;53.326;-6.298;2023-12-07T00:26:04;99915.60;;;8.19;100.00
61488;BME280;47351;53.326;-6.298;2023-12-07T00:28:56;99907.17;;;8.20;100.00
61488;BME280;47351;53.326;-6.298;2023-12-07T00:31:46;99902.09;;;8.21;100.00
61488;BME280;47351;53.326;-6.298;2023-12-07T00:34:37;99903.25;;;8.21;100.00
61488;BME280;47351;53.326;-6.298;2023-12-07T00:37:28;99903.31;;;8.22;100.00
61488;BME280;47351;53.326;-6.298;2023-12-07T00:40:18;99889.89;;;8.23;100.00
61488;BME280;47351;53.326;-6.298;2023-12-07T00:43:09;99881.70;;;8.23;100.00
61488;BME280;47351;53.326;-6.298;2023-12-07T00:46:01;99887.48;;;8.24;100.00
61488;BME280;47351;53.326;-6.298;2023-12-07T00:48:52;99886.02;;;8.24;100.00
61488;BME280;47351;53.326;-6.298;2023-12-07T00:51:42;99870.65;;;8.25;100.00
61488;BME280;47351;53.326;-6.298;2023-12-07T00:54:33;99850.79;;;8.26;100.00
61488;BME280;47351;53.326;-6.298;2023-12-07T00:57:24;99830.59;;;8.27;100.00
61488;BME280;47351;53.326;-6.298;2023-12-07T01:00:16;99801.10;;;8.27;100.00
61488;BME280;47351;53.326;-6.298;2023-12-07T01:03:06;99775.33;;;8.27;100.00
61488;BME280;47351;53.326;-6.298;2023-12-07T01:05:57;99770.98;;;8.26;100.00
61488;BME280;47351;53.326;-6.298;2023-12-07T01:08:48;99773.06;;;8.27;100.00
61488;BME280;47351;53.326;-6.298;2023-12-07T01:11:39;99774.10;;;8.27;100.00
61488;BME280;47351;53.326;-6.298;2023-12-07T01:14:30;99792.13;;;8.28;100.00
61488;BME280;47351;53.326;-6.298;2023-12-07T01:17:21;99805.95;;;8.28;100.00
61488;BME280;47351;53.326;-6.298;2023-12-07T01:20:12;99813.37;;;8.29;100.00
61488;BME280;47351;53.326;-6.298;2023-12-07T01:23:03;99823.73;;;8.30;100.00
61488;BME280;47351;53.326;-6.298;2023-12-07T01:25:53;99818.04;;;8.30;100.00
61488;BME280;47351;53.326;-6.298;2023-12-07T01:28:44;99808.70;;;8.29;100.00
61488;BME280;47351;53.326;-6.298;2023-12-07T01:31:36;99803.60;;;8.29;100.00
61488;BME280;47351;53.326;-6.298;2023-12-07T01:34:26;99798.13;;;8.28;100.00
61488;BME280;47351;53.326;-6.298;2023-12-07T01:37:17;99793.02;;;8.28;100.00
61488;BME280;47351;53.326;-6.298;2023-12-07T01:40:09;99774.20;;;8.28;100.00
61488;BME280;47351;53.326;-6.298;2023-12-07T01:43:00;99770.09;;;8.28;100.00
61488;BME280;47351;53.326;-6.298;2023-12-07T01:45:51;99766.52;;;8.28;100.00
61488;BME280;47351;53.326;-6.298;2023-12-07T01:48:43;99756.52;;;8.28;100.00
61488;BME280;47351;53.326;-6.298;2023-12-07T01:51:37;99752.97;;;8.29;100.00
61488;BME280;47351;53.326;-6.298;2023-12-07T01:54:28;99747.48;;;8.28;100.00
61488;BME280;47351;53.326;-6.298;2023-12-07T01:57:19;99746.50;;;8.29;100.00
61488;BME280;47351;53.326;-6.298;2023-12-07T02:00:11;99742.90;;;8.30;100.00
61488;BME280;47351;53.326;-6.298;2023-12-07T02:03:02;99740.16;;;8.30;100.00
61488;BME280;47351;53.326;-6.298;2023-12-07T02:05:53;99737.40;;;8.31;100.00
61488;BME280;47351;53.326;-6.298;2023-12-07T02:08:45;99735.27;;;8.33;100.00
61488;BME280;47351;53.326;-6.298;2023-12-07T02:11:35;99724.66;;;8.34;100.00
61488;BME280;47351;53.326;-6.298;2023-12-07T02:14:27;99724.26;;;8.34;100.00
61488;BME280;47351;53.326;-6.298;2023-12-07T02:17:18;99725.05;;;8.35;100.00
61488;BME280;47351;53.326;-6.298;2023-12-07T02:20:13;99723.59;;;8.35;100.00
61488;BME280;47351;53.326;-6.298;2023-12-07T02:23:08;99724.44;;;8.36;100.00
61488;BME280;47351;53.326;-6.298;2023-12-07T02:26:02;99725.70;;;8.38;100.00
61488;BME280;47351;53.326;-6.298;2023-12-07T02:28:53;99717.41;;;8.39;100.00
61488;BME280;47351;53.326;-6.298;2023-12-07T02:31:43;99714.46;;;8.40;100.00
61488;BME280;47351;53.326;-6.298;2023-12-07T02:34:34;99707.62;;;8.41;100.00
61488;BME280;47351;53.326;-6.298;2023-12-07T02:37:26;99705.11;;;8.42;100.00
61488;BME280;47351;53.326;-6.298;2023-12-07T02:40:18;99705.42;;;8.44;100.00
61488;BME280;47351;53.326;-6.298;2023-12-07T02:43:11;99702.42;;;8.46;100.00
61488;BME280;47351;53.326;-6.298;2023-12-07T02:46:13;99704.48;;;8.48;100.00
61488;BME280;47351;53.326;-6.298;2023-12-07T02:49:04;99700.69;;;8.50;100.00
61488;BME280;47351;53.326;-6.298;2023-12-07T02:51:55;99692.59;;;8.52;100.00
61488;BME280;47351;53.326;-6.298;2023-12-07T02:54:46;99683.88;;;8.54;100.00
61488;BME280;47351;53.326;-6.298;2023-12-07T02:57:37;99681.83;;;8.55;100.00
61488;BME280;47351;53.326;-6.298;2023-12-07T03:00:28;99681.45;;;8.55;100.00
61488;BME280;47351;53.326;-6.298;2023-12-07T03:03:19;99680.58;;;8.57;100.00
61488;BME280;47351;53.326;-6.298;2023-12-07T03:06:11;99678.72;;;8.59;100.00
61488;BME280;47351;53.326;-6.298;2023-12-07T03:09:02;99681.23;;;8.62;100.00
61488;BME280;47351;53.326;-6.298;2023-12-07T03:11:53;99674.40;;;8.64;100.00
61488;BME280;47351;53.326;-6.298;2023-12-07T03:14:43;99659.98;;;8.68;100.00
61488;BME280;47351;53.326;-6.298;2023-12-07T03:17:34;99652.66;;;8.71;100.00
61488;BME280;47351;53.326;-6.298;2023-12-07T03:20:25;99649.95;;;8.74;100.00
61488;BME280;47351;53.326;-6.298;2023-12-07T03:23:15;99643.89;;;8.77;100.00
61488;BME280;47351;53.326;-6.298;2023-12-07T03:26:06;99632.09;;;8.80;100.00
61488;BME280;47351;53.326;-6.298;2023-12-07T03:28:57;99611.63;;;8.81;100.00
61488;BME280;47351;53.326;-6.298;2023-12-07T03:31:47;99605.71;;;8.84;100.00
61488;BME280;47351;53.326;-6.298;2023-12-07T03:34:38;99605.66;;;8.85;100.00
61488;BME280;47351;53.326;-6.298;2023-12-07T03:37:28;99594.58;;;8.87;100.00
61488;BME280;47351;53.326;-6.298;2023-12-07T03:40:19;99586.46;;;8.90;100.00
61488;BME280;47351;53.326;-6.298;2023-12-07T03:43:10;99577.91;;;8.92;100.00
61488;BME280;47351;53.326;-6.298;2023-12-07T03:46:01;99575.69;;;8.93;100.00
61488;BME280;47351;53.326;-6.298;2023-12-07T03:48:54;99570.34;;;8.93;100.00
61488;BME280;47351;53.326;-6.298;2023-12-07T03:51:45;99570.27;;;8.92;100.00
61488;BME280;47351;53.326;-6.298;2023-12-07T03:54:35;99558.22;;;8.91;100.00
61488;BME280;47351;53.326;-6.298;2023-12-07T03:57:26;99548.85;;;8.92;100.00
61488;BME280;47351;53.326;-6.298;2023-12-07T04:00:17;99544.08;;;8.94;100.00
61488;BME280;47351;53.326;-6.298;2023-12-07T04:03:08;99537.71;;;8.96;100.00
61488;BME280;47351;53.326;-6.298;2023-12-07T04:05:59;99538.13;;;8.99;100.00
61488;BME280;47351;53.326;-6.298;2023-12-07T04:08:49;99535.72;;;9.01;100.00
61488;BME280;47351;53.326;-6.298;2023-12-07T04:11:40;99535.34;;;9.03;100.00
61488;BME280;47351;53.326;-6.298;2023-12-07T04:14:31;99532.02;;;9.05;100.00
61488;BME280;47351;53.326;-6.298;2023-12-07T04:17:21;99536.30;;;9.07;100.00
61488;BME280;47351;53.326;-6.298;2023-12-07T04:20:12;99533.19;;;9.09;100.00
61488;BME280;47351;53.326;-6.298;2023-12-07T04:23:03;99523.73;;;9.11;100.00
61488;BME280;47351;53.326;-6.298;2023-12-07T04:25:53;99520.02;;;9.14;100.00
61488;BME280;47351;53.326;-6.298;2023-12-07T04:28:44;99522.51;;;9.15;100.00
61488;BME280;47351;53.326;-6.298;2023-12-07T04:31:35;99521.18;;;9.17;100.00
61488;BME280;47351;53.326;-6.298;2023-12-07T04:34:26;99513.52;;;9.21;100.00
61488;BME280;47351;53.326;-6.298;2023-12-07T04:37:17;99508.35;;;9.24;100.00
61488;BME280;47351;53.326;-6.298;2023-12-07T04:40:08;99509.02;;;9.27;100.00
61488;BME280;47351;53.326;-6.298;2023-12-07T04:42:59;99494.58;;;9.28;100.00
61488;BME280;47351;53.326;-6.298;2023-12-07T04:45:50;99487.96;;;9.31;100.00
61488;BME280;47351;53.326;-6.298;2023-12-07T04:48:41;99484.95;;;9.32;100.00
61488;BME280;47351;53.326;-6.298;2023-12-07T04:51:31;99478.11;;;9.33;100.00
61488;BME280;47351;53.326;-6.298;2023-12-07T04:54:22;99471.18;;;9.34;100.00
61488;BME280;47351;53.326;-6.298;2023-12-07T04:57:13;99466.30;;;9.35;100.00
61488;BME280;47351;53.326;-6.298;2023-12-07T05:00:04;99458.14;;;9.36;100.00
61488;BME280;47351;53.326;-6.298;2023-12-07T05:02:58;99449.48;;;9.37;100.00
61488;BME280;47351;53.326;-6.298;2023-12-07T05:05:49;99444.34;;;9.37;100.00
61488;BME280;47351;53.326;-6.298;2023-12-07T05:08:40;99445.26;;;9.37;100.00
61488;BME280;47351;53.326;-6.298;2023-12-07T05:11:32;99444.58;;;9.36;100.00
61488;BME280;47351;53.326;-6.298;2023-12-07T05:14:23;99443.48;;;9.35;100.00
61488;BME280;47351;53.326;-6.298;2023-12-07T05:17:13;99447.14;;;9.34;100.00
61488;BME280;47351;53.326;-6.298;2023-12-07T05:20:06;99447.89;;;9.35;100.00
61488;BME280;47351;53.326;-6.298;2023-12-07T05:22:56;99446.71;;;9.36;100.00
61488;BME280;47351;53.326;-6.298;2023-12-07T05:25:47;99449.86;;;9.37;100.00
61488;BME280;47351;53.326;-6.298;2023-12-07T05:28:38;99441.90;;;9.38;100.00
61488;BME280;47351;53.326;-6.298;2023-12-07T05:31:29;99434.46;;;9.39;100.00
61488;BME280;47351;53.326;-6.298;2023-12-07T05:34:19;99434.02;;;9.41;100.00
61488;BME280;47351;53.326;-6.298;2023-12-07T05:37:10;99432.80;;;9.45;100.00
61488;BME280;47351;53.326;-6.298;2023-12-07T05:40:01;99432.49;;;9.49;100.00
61488;BME280;47351;53.326;-6.298;2023-12-07T05:42:52;99426.75;;;9.53;100.00
61488;BME280;47351;53.326;-6.298;2023-12-07T05:45:42;99425.23;;;9.55;100.00
61488;BME280;47351;53.326;-6.298;2023-12-07T05:48:33;99417.34;;;9.55;100.00
61488;BME280;47351;53.326;-6.298;2023-12-07T05:51:24;99409.13;;;9.56;100.00
61488;BME280;47351;53.326;-6.298;2023-12-07T05:54:15;99412.87;;;9.59;100.00
61488;BME280;47351;53.326;-6.298;2023-12-07T05:57:05;99409.67;;;9.60;100.00
61488;BME280;47351;53.326;-6.298;2023-12-07T05:59:56;99404.30;;;9.60;100.00
61488;BME280;47351;53.326;-6.298;2023-12-07T06:02:47;99391.71;;;9.60;100.00
61488;BME280;47351;53.326;-6.298;2023-12-07T06:05:38;99384.43;;;9.60;100.00
61488;BME280;47351;53.326;-6.298;2023-12-07T06:08:29;99374.05;;;9.58;100.00
61488;BME280;47351;53.326;-6.298;2023-12-07T06:11:23;99370.41;;;9.59;100.00
61488;BME280;47351;53.326;-6.298;2023-12-07T06:14:13;99369.04;;;9.61;100.00
61488;BME280;47351;53.326;-6.298;2023-12-07T06:17:04;99356.27;;;9.65;100.00
61488;BME280;47351;53.326;-6.298;2023-12-07T06:19:57;99342.05;;;9.69;100.00
61488;BME280;47351;53.326;-6.298;2023-12-07T06:22:48;99326.54;;;9.74;100.00
61488;BME280;47351;53.326;-6.298;2023-12-07T06:25:38;99329.79;;;9.78;100.00
61488;BME280;47351;53.326;-6.298;2023-12-07T06:28:29;99338.52;;;9.83;100.00
61488;BME280;47351;53.326;-6.298;2023-12-07T06:31:21;99339.33;;;9.88;100.00
61488;BME280;47351;53.326;-6.298;2023-12-07T06:34:12;99335.85;;;9.93;100.00
61488;BME280;47351;53.326;-6.298;2023-12-07T06:37:03;99328.38;;;9.99;100.00
61488;BME280;47351;53.326;-6.298;2023-12-07T06:39:53;99326.51;;;10.04;100.00
61488;BME280;47351;53.326;-6.298;2023-12-07T06:42:44;99321.58;;;10.07;100.00
61488;BME280;47351;53.326;-6.298;2023-12-07T06:45:35;99318.80;;;10.13;100.00
61488;BME280;47351;53.326;-6.298;2023-12-07T06:48:25;99312.34;;;10.16;100.00
61488;BME280;47351;53.326;-6.298;2023-12-07T06:51:16;99302.73;;;10.18;100.00
61488;BME280;47351;53.326;-6.298;2023-12-07T06:54:07;99293.71;;;10.21;100.00
61488;BME280;47351;53.326;-6.298;2023-12-07T06:56:57;99299.36;;;10.23;100.00
61488;BME280;47351;53.326;-6.298;2023-12-07T06:59:49;99279.67;;;10.25;100.00
61488;BME280;47351;53.326;-6.298;2023-12-07T07:02:40;99264.30;;;10.26;100.00
61488;BME280;47351;53.326;-6.298;2023-12-07T07:05:31;99258.70;;;10.26;100.00
61488;BME280;47351;53.326;-6.298;2023-12-07T07:08:22;99255.50;;;10.28;100.00
61488;BME280;47351;53.326;-6.298;2023-12-07T07:11:13;99247.52;;;10.29;100.00
61488;BME280;47351;53.326;-6.298;2023-12-07T07:14:07;99239.52;;;10.30;100.00
61488;BME280;47351;53.326;-6.298;2023-12-07T07:16:59;99234.05;;;10.32;100.00
61488;BME280;47351;53.326;-6.298;2023-12-07T07:19:49;99237.59;;;10.34;100.00
61488;BME280;47351;53.326;-6.298;2023-12-07T07:22:40;99237.81;;;10.35;100.00
61488;BME280;47351;53.326;-6.298;2023-12-07T07:25:31;99240.87;;;10.36;100.00
61488;BME280;47351;53.326;-6.298;2023-12-07T07:28:21;99242.30;;;10.36;100.00
61488;BME280;47351;53.326;-6.298;2023-12-07T07:31:12;99238.77;;;10.36;100.00
61488;BME280;47351;53.326;-6.298;2023-12-07T07:34:03;99233.95;;;10.36;100.00
61488;BME280;47351;53.326;-6.298;2023-12-07T07:36:55;99231.36;;;10.36;100.00
61488;BME280;47351;53.326;-6.298;2023-12-07T07:39:45;99230.26;;;10.37;100.00
61488;BME280;47351;53.326;-6.298;2023-12-07T07:42:36;99233.69;;;10.38;100.00
61488;BME280;47351;53.326;-6.298;2023-12-07T07:45:27;99237.73;;;10.39;100.00
61488;BME280;47351;53.326;-6.298;2023-12-07T07:48:18;99246.30;;;10.41;100.00
61488;BME280;47351;53.326;-6.298;2023-12-07T07:51:08;99244.70;;;10.41;100.00
61488;BME280;47351;53.326;-6.298;2023-12-07T07:53:59;99246.15;;;10.42;100.00
61488;BME280;47351;53.326;-6.298;2023-12-07T07:56:50;99249.45;;;10.44;100.00
61488;BME280;47351;53.326;-6.298;2023-12-07T07:59:40;99238.06;;;10.44;100.00
61488;BME280;47351;53.326;-6.298;2023-12-07T08:02:31;99244.05;;;10.43;100.00
61488;BME280;47351;53.326;-6.298;2023-12-07T08:05:22;99236.16;;;10.43;100.00
61488;BME280;47351;53.326;-6.298;2023-12-07T08:08:12;99226.16;;;10.45;100.00
61488;BME280;47351;53.326;-6.298;2023-12-07T08:11:03;99218.16;;;10.48;100.00
61488;BME280;47351;53.326;-6.298;2023-12-07T08:13:54;99216.63;;;10.51;100.00
61488;BME280;47351;53.326;-6.298;2023-12-07T08:16:47;99206.60;;;10.54;100.00
61488;BME280;47351;53.326;-6.298;2023-12-07T08:19:38;99199.58;;;10.57;100.00
61488;BME280;47351;53.326;-6.298;2023-12-07T08:22:28;99180.34;;;10.60;100.00
61488;BME280;47351;53.326;-6.298;2023-12-07T08:25:19;99167.41;;;10.61;100.00
61488;BME280;47351;53.326;-6.298;2023-12-07T08:28:11;99155.15;;;10.59;100.00
61488;BME280;47351;53.326;-6.298;2023-12-07T08:31:03;99147.67;;;10.56;100.00
61488;BME280;47351;53.326;-6.298;2023-12-07T08:33:54;99151.52;;;10.54;100.00
61488;BME280;47351;53.326;-6.298;2023-12-07T08:36:44;99148.55;;;10.52;100.00
61488;BME280;47351;53.326;-6.298;2023-12-07T08:39:35;99136.40;;;10.52;100.00
61488;BME280;47351;53.326;-6.298;2023-12-07T08:42:26;99118.10;;;10.53;100.00
61488;BME280;47351;53.326;-6.298;2023-12-07T08:45:17;99117.07;;;10.54;100.00
61488;BME280;47351;53.326;-6.298;2023-12-07T08:48:07;99121.36;;;10.57;100.00
61488;BME280;47351;53.326;-6.298;2023-12-07T08:50:58;99124.80;;;10.59;100.00
61488;BME280;47351;53.326;-6.298;2023-12-07T08:53:49;99128.50;;;10.61;100.00
61488;BME280;47351;53.326;-6.298;2023-12-07T08:56:44;99119.42;;;10.62;100.00
61488;BME280;47351;53.326;-6.298;2023-12-07T08:59:35;99112.88;;;10.63;100.00
61488;BME280;47351;53.326;-6.298;2023-12-07T09:02:26;99116.23;;;10.66;100.00
61488;BME280;47351;53.326;-6.298;2023-12-07T09:05:33;99109.20;;;10.71;100.00
61488;BME280;47351;53.326;-6.298;2023-12-07T09:08:27;99106.80;;;10.75;100.00
61488;BME280;47351;53.326;-6.298;2023-12-07T09:11:17;99101.75;;;10.79;100.00
61488;BME280;47351;53.326;-6.298;2023-12-07T09:14:08;99102.02;;;10.82;100.00
61488;BME280;47351;53.326;-6.298;2023-12-07T09:17:01;99113.64;;;10.85;100.00
61488;BME280;47351;53.326;-6.298;2023-12-07T09:19:52;99122.86;;;10.90;100.00
61488;BME280;47351;53.326;-6.298;2023-12-07T09:22:43;99122.42;;;10.94;100.00
61488;BME280;47351;53.326;-6.298;2023-12-07T09:25:35;99098.70;;;10.97;100.00
61488;BME280;47351;53.326;-6.298;2023-12-07T09:28:25;99100.88;;;10.97;100.00
61488;BME280;47351;53.326;-6.298;2023-12-07T09:31:16;99092.52;;;10.97;100.00
61488;BME280;47351;53.326;-6.298;2023-12-07T09:34:07;99098.61;;;10.96;100.00
61488;BME280;47351;53.326;-6.298;2023-12-07T09:37:06;99089.92;;;10.96;100.00
61488;BME280;47351;53.326;-6.298;2023-12-07T09:39:58;99074.83;;;10.94;100.00
61488;BME280;47351;53.326;-6.298;2023-12-07T09:42:51;99072.19;;;10.91;100.00
61488;BME280;47351;53.326;-6.298;2023-12-07T09:45:41;99066.27;;;10.91;100.00
61488;BME280;47351;53.326;-6.298;2023-12-07T09:48:36;99046.33;;;10.92;100.00
61488;BME280;47351;53.326;-6.298;2023-12-07T09:51:27;99040.52;;;10.93;100.00
61488;BME280;47351;53.326;-6.298;2023-12-07T09:54:20;99057.73;;;10.94;100.00
61488;BME280;47351;53.326;-6.298;2023-12-07T09:57:12;99058.29;;;10.95;100.00
61488;BME280;47351;53.326;-6.298;2023-12-07T10:00:03;99054.13;;;10.97;100.00
61488;BME280;47351;53.326;-6.298;2023-12-07T10:02:58;99047.13;;;10.98;100.00
61488;BME280;47351;53.326;-6.298;2023-12-07T10:05:56;99042.98;;;11.00;100.00
61488;BME280;47351;53.326;-6.298;2023-12-07T10:08:53;99033.50;;;11.01;100.00
61488;BME280;47351;53.326;-6.298;2023-12-07T10:12:03;99026.62;;;11.02;100.00
61488;BME280;47351;53.326;-6.298;2023-12-07T10:14:54;99023.94;;;11.02;100.00
61488;BME280;47351;53.326;-6.298;2023-12-07T10:17:49;99028.92;;;11.02;100.00
61488;BME280;47351;53.326;-6.298;2023-12-07T10:20:44;99024.27;;;11.02;100.00
61488;BME280;47351;53.326;-6.298;2023-12-07T10:23:37;99016.70;;;11.03;100.00
61488;BME280;47351;53.326;-6.298;2023-12-07T10:26:28;99020.86;;;11.05;100.00
61488;BME280;47351;53.326;-6.298;2023-12-07T10:29:22;99010.77;;;11.07;100.00
61488;BME280;47351;53.326;-6.298;2023-12-07T10:32:22;99017.98;;;11.09;100.00
61488;BME280;47351;53.326;-6.298;2023-12-07T10:35:15;99028.66;;;11.12;100.00
61488;BME280;47351;53.326;-6.298;2023-12-07T10:38:07;99025.00;;;11.16;100.00
61488;BME280;47351;53.326;-6.298;2023-12-07T10:40:59;99018.09;;;11.20;100.00
61488;BME280;47351;53.326;-6.298;2023-12-07T10:43:54;99018.34;;;11.23;100.00
61488;BME280;47351;53.326;-6.298;2023-12-07T10:46:47;99011.51;;;11.26;100.00
61488;BME280;47351;53.326;-6.298;2023-12-07T10:49:39;99003.17;;;11.28;100.00
61488;BME280;47351;53.326;-6.298;2023-12-07T10:52:36;98988.05;;;11.30;100.00
61488;BME280;47351;53.326;-6.298;2023-12-07T10:55:28;98980.86;;;11.32;100.00
61488;BME280;47351;53.326;-6.298;2023-12-07T10:58:20;98974.54;;;11.34;100.00
61488;BME280;47351;53.326;-6.298;2023-12-07T11:01:14;98968.27;;;11.35;100.00
61488;BME280;47351;53.326;-6.298;2023-12-07T11:04:05;98958.81;;;11.35;100.00
61488;BME280;47351;53.326;-6.298;2023-12-07T11:07:00;98960.52;;;11.34;100.00
61488;BME280;47351;53.326;-6.298;2023-12-07T11:09:57;98943.30;;;11.35;100.00
61488;BME280;47351;53.326;-6.298;2023-12-07T11:12:53;98932.67;;;11.36;100.00
61488;BME280;47351;53.326;-6.298;2023-12-07T11:15:46;98923.88;;;11.37;100.00
61488;BME280;47351;53.326;-6.298;2023-12-07T11:18:44;98923.73;;;11.42;100.00
61488;BME280;47351;53.326;-6.298;2023-12-07T11:21:45;98913.15;;;11.49;100.00
61488;BME280;47351;53.326;-6.298;2023-12-07T11:24:36;98903.67;;;11.53;100.00
61488;BME280;47351;53.326;-6.298;2023-12-07T11:27:30;98888.40;;;11.56;100.00
61488;BME280;47351;53.326;-6.298;2023-12-07T11:30:22;98884.54;;;11.57;100.00
61488;BME280;47351;53.326;-6.298;2023-12-07T11:33:16;98875.83;;;11.58;100.00
61488;BME280;47351;53.326;-6.298;2023-12-07T11:36:09;98880.23;;;11.60;100.00
61488;BME280;47351;53.326;-6.298;2023-12-07T11:39:17;98878.00;;;11.62;100.00
61488;BME280;47351;53.326;-6.298;2023-12-07T11:42:25;98873.30;;;11.64;100.00
61488;BME280;47351;53.326;-6.298;2023-12-07T11:48:27;98855.55;;;11.70;100.00
61488;BME280;47351;53.326;-6.298;2023-12-07T11:51:21;98840.70;;;11.72;100.00
61488;BME280;47351;53.326;-6.298;2023-12-07T11:54:16;98828.78;;;11.76;100.00
61488;BME280;47351;53.326;-6.298;2023-12-07T11:57:07;98817.77;;;11.75;100.00
61488;BME280;47351;53.326;-6.298;2023-12-07T12:00:16;98826.80;;;11.73;100.00
61488;BME280;47351;53.326;-6.298;2023-12-07T12:03:46;98822.23;;;11.70;100.00
61488;BME280;47351;53.326;-6.298;2023-12-07T12:06:38;98806.93;;;11.68;100.00
61488;BME280;47351;53.326;-6.298;2023-12-07T12:13:33;98807.77;;;11.65;100.00
61488;BME280;47351;53.326;-6.298;2023-12-07T12:16:58;98809.84;;;11.63;100.00
61488;BME280;47351;53.326;-6.298;2023-12-07T12:29:01;98779.04;;;11.65;100.00
61488;BME280;47351;53.326;-6.298;2023-12-07T12:31:52;98766.95;;;11.64;100.00
61488;BME280;47351;53.326;-6.298;2023-12-07T12:52:27;98741.00;;;11.66;100.00
61488;BME280;47351;53.326;-6.298;2023-12-07T12:59:26;98757.02;;;11.75;100.00
61488;BME280;47351;53.326;-6.298;2023-12-07T13:02:46;98767.95;;;11.81;100.00
61488;BME280;47351;53.326;-6.298;2023-12-07T13:05:52;98781.98;;;11.86;100.00
61488;BME280;47351;53.326;-6.298;2023-12-07T13:08:49;98794.21;;;11.84;100.00
61488;BME280;47351;53.326;-6.298;2023-12-07T13:11:41;98786.71;;;11.81;100.00
61488;BME280;47351;53.326;-6.298;2023-12-07T13:18:26;98769.52;;;11.74;100.00
61488;BME280;47351;53.326;-6.298;2023-12-07T13:21:30;98762.48;;;11.69;100.00
61488;BME280;47351;53.326;-6.298;2023-12-07T13:36:18;98762.22;;;11.39;100.00
61488;BME280;47351;53.326;-6.298;2023-12-07T13:39:15;98760.55;;;11.34;100.00
61488;BME280;47351;53.326;-6.298;2023-12-07T13:42:19;98747.58;;;11.30;100.00
61488;BME280;47351;53.326;-6.298;2023-12-07T13:45:18;98743.52;;;11.25;100.00
61488;BME280;47351;53.326;-6.298;2023-12-07T13:48:18;98738.52;;;11.22;100.00
61488;BME280;47351;53.326;-6.298;2023-12-07T13:54:40;98739.10;;;11.12;100.00
61488;BME280;47351;53.326;-6.298;2023-12-07T13:57:42;98745.45;;;11.07;100.00
61488;BME280;47351;53.326;-6.298;2023-12-07T14:00:34;98754.27;;;11.04;100.00
61488;BME280;47351;53.326;-6.298;2023-12-07T14:03:25;98755.06;;;11.01;100.00
61488;BME280;47351;53.326;-6.298;2023-12-07T14:06:22;98755.64;;;10.99;100.00
61488;BME280;47351;53.326;-6.298;2023-12-07T14:09:17;98754.86;;;10.99;100.00
61488;BME280;47351;53.326;-6.298;2023-12-07T14:12:08;98756.06;;;10.98;100.00
61488;BME280;47351;53.326;-6.298;2023-12-07T14:15:01;98756.60;;;10.98;100.00
61488;BME280;47351;53.326;-6.298;2023-12-07T14:17:52;98767.84;;;10.99;100.00
61488;BME280;47351;53.326;-6.298;2023-12-07T14:20:43;98773.84;;;10.99;100.00
61488;BME280;47351;53.326;-6.298;2023-12-07T14:23:55;98780.45;;;11.01;100.00
61488;BME280;47351;53.326;-6.298;2023-12-07T14:26:47;98786.52;;;11.03;100.00
61488;BME280;47351;53.326;-6.298;2023-12-07T14:29:38;98779.11;;;11.02;100.00
61488;BME280;47351;53.326;-6.298;2023-12-07T14:32:29;98782.63;;;11.01;100.00
61488;BME280;47351;53.326;-6.298;2023-12-07T14:35:20;98782.99;;;10.98;100.00
61488;BME280;47351;53.326;-6.298;2023-12-07T14:38:11;98779.16;;;10.96;100.00
61488;BME280;47351;53.326;-6.298;2023-12-07T14:41:03;98776.50;;;10.95;100.00
61488;BME280;47351;53.326;-6.298;2023-12-07T14:43:57;98780.30;;;10.94;100.00
61488;BME280;47351;53.326;-6.298;2023-12-07T14:46:48;98782.84;;;10.98;100.00
61488;BME280;47351;53.326;-6.298;2023-12-07T14:49:39;98788.51;;;11.02;100.00
61488;BME280;47351;53.326;-6.298;2023-12-07T14:52:30;98784.97;;;11.07;100.00
61488;BME280;47351;53.326;-6.298;2023-12-07T14:55:21;98779.23;;;11.12;100.00
61488;BME280;47351;53.326;-6.298;2023-12-07T14:58:14;98786.84;;;11.17;100.00
61488;BME280;47351;53.326;-6.298;2023-12-07T15:01:05;98784.93;;;11.20;100.00
61488;BME280;47351;53.326;-6.298;2023-12-07T15:03:56;98778.25;;;11.24;100.00
61488;BME280;47351;53.326;-6.298;2023-12-07T15:06:47;98778.13;;;11.26;100.00
61488;BME280;47351;53.326;-6.298;2023-12-07T15:09:37;98776.15;;;11.26;100.00
61488;BME280;47351;53.326;-6.298;2023-12-07T15:12:28;98773.35;;;11.27;100.00
61488;BME280;47351;53.326;-6.298;2023-12-07T15:15:19;98771.98;;;11.28;100.00
61488;BME280;47351;53.326;-6.298;2023-12-07T15:18:10;98772.40;;;11.27;100.00
61488;BME280;47351;53.326;-6.298;2023-12-07T15:21:01;98775.83;;;11.23;100.00
61488;BME280;47351;53.326;-6.298;2023-12-07T15:23:53;98781.80;;;11.19;100.00
61488;BME280;47351;53.326;-6.298;2023-12-07T15:26:43;98786.06;;;11.12;100.00
61488;BME280;47351;53.326;-6.298;2023-12-07T15:29:34;98781.46;;;11.04;100.00
61488;BME280;47351;53.326;-6.298;2023-12-07T15:32:27;98780.74;;;10.95;100.00
61488;BME280;47351;53.326;-6.298;2023-12-07T15:35:18;98784.73;;;10.86;100.00
61488;BME280;47351;53.326;-6.298;2023-12-07T15:38:10;98792.52;;;10.76;100.00
61488;BME280;47351;53.326;-6.298;2023-12-07T15:41:01;98799.97;;;10.64;100.00
61488;BME280;47351;53.326;-6.298;2023-12-07T15:43:51;98801.33;;;10.56;100.00
61488;BME280;47351;53.326;-6.298;2023-12-07T15:46:42;98806.42;;;10.47;100.00
61488;BME280;47351;53.326;-6.298;2023-12-07T15:49:33;98813.73;;;10.39;100.00
61488;BME280;47351;53.326;-6.298;2023-12-07T15:52:24;98815.21;;;10.33;100.00